Time,TemperatureF,DewpointF,PressureIn,WindDirection,WindDirectionDegrees,WindSpeedMPH,WindSpeedGustMPH,Humidity,HourlyPrecipIn,Conditions,Clouds,dailyrainin,SoftwareType,DateUTC
2013-12-19 00:01:00,22.5,20.0,29.83,NE,43,0.0,4.0,90,0.00,,CLR,0.00,VWS V14.01,2013-12-19 06:01:00,
2013-12-19 00:06:00,22.5,19.8,29.83,NW,312,1.0,5.0,89,0.00,,CLR,0.00,VWS V14.01,2013-12-19 06:06:00,
2013-12-19 00:11:00,22.5,19.8,29.83,NW,316,2.0,5.0,89,0.00,,CLR,0.00,VWS V14.01,2013-12-19 06:11:00,
2013-12-19 00:16:00,22.4,19.7,29.83,NW,316,1.0,5.0,89,0.00,,CLR,0.00,VWS V14.01,2013-12-19 06:16:00,
2013-12-19 00:21:00,22.4,19.4,29.84,NW,318,2.0,5.0,88,0.00,,CLR,0.00,VWS V14.01,2013-12-19 06:21:00,
2013-12-19 00:26:00,22.3,19.3,29.84,WNW,302,1.0,5.0,88,0.00,,CLR,0.00,VWS V14.01,2013-12-19 06:26:00,
2013-12-19 00:31:00,22.3,19.3,29.84,NW,309,1.0,5.0,88,0.00,,CLR,0.00,VWS V14.01,2013-12-19 06:31:00,
2013-12-19 00:36:00,22.1,19.1,29.84,WNW,302,0.0,5.0,88,0.00,,CLR,0.00,VWS V14.01,2013-12-19 06:36:00,
2013-12-19 00:41:00,22.1,19.1,29.85,NW,315,2.0,5.0,88,0.00,,CLR,0.00,VWS V14.01,2013-12-19 06:41:00,
2013-12-19 00:46:00,22.0,18.7,29.85,NW,323,2.0,5.0,87,0.00,,CLR,0.00,VWS V14.01,2013-12-19 06:46:00,
2013-12-19 00:51:00,21.9,18.6,29.85,WNW,285,0.0,5.0,87,0.00,,CLR,0.00,VWS V14.01,2013-12-19 06:51:00,
2013-12-19 00:56:00,21.8,18.5,29.85,West,276,0.0,5.0,87,0.00,,CLR,0.00,VWS V14.01,2013-12-19 06:56:00,
2013-12-19 01:01:00,21.7,18.4,29.85,NNW,328,2.0,2.0,87,0.00,,CLR,0.00,VWS V14.01,2013-12-19 07:01:00,
2013-12-19 01:06:00,21.6,18.3,29.86,WSW,247,0.0,2.0,87,0.00,,CLR,0.00,VWS V14.01,2013-12-19 07:06:00,
2013-12-19 01:11:00,21.6,18.3,29.87,NW,318,2.0,2.0,87,0.00,,CLR,0.00,VWS V14.01,2013-12-19 07:11:00,
2013-12-19 01:16:00,21.5,18.0,29.88,NW,304,0.0,2.0,86,0.00,,CLR,0.00,VWS V14.01,2013-12-19 07:16:00,
2013-12-19 01:21:00,21.4,17.9,29.87,NW,315,1.0,3.0,86,0.00,,CLR,0.00,VWS V14.01,2013-12-19 07:21:00,
2013-12-19 01:26:00,21.3,17.8,29.88,NW,304,1.0,3.0,86,0.00,,CLR,0.00,VWS V14.01,2013-12-19 07:26:00,
2013-12-19 01:31:00,21.1,17.6,29.88,NW,316,0.0,3.0,86,0.00,,CLR,0.00,VWS V14.01,2013-12-19 07:31:00,
2013-12-19 01:36:00,21.0,17.5,29.88,NW,307,0.0,3.0,86,0.00,,CLR,0.00,VWS V14.01,2013-12-19 07:36:00,
2013-12-19 01:41:00,20.9,17.4,29.89,NNW,328,0.0,3.0,86,0.00,,CLR,0.00,VWS V14.01,2013-12-19 07:41:00,
2013-12-19 01:46:00,20.9,17.4,29.89,NW,316,0.0,3.0,86,0.00,,CLR,0.00,VWS V14.01,2013-12-19 07:46:00,
2013-12-19 01:51:00,20.8,17.0,29.90,NW,322,1.0,3.0,85,0.00,,CLR,0.00,VWS V14.01,2013-12-19 07:51:00,
2013-12-19 01:56:00,20.7,16.9,29.90,NW,311,0.0,3.0,85,0.00,,CLR,0.00,VWS V14.01,2013-12-19 07:56:00,
2013-12-19 02:01:00,20.6,16.8,29.90,NW,317,1.0,1.0,85,0.00,,CLR,0.00,VWS V14.01,2013-12-19 08:01:00,
2013-12-19 02:06:00,20.5,16.7,29.90,North,357,1.0,2.0,85,0.00,,CLR,0.00,VWS V14.01,2013-12-19 08:06:00,
2013-12-19 02:11:00,20.4,16.6,29.91,NNW,346,0.0,2.0,85,0.00,,CLR,0.00,VWS V14.01,2013-12-19 08:11:00,
2013-12-19 02:16:00,20.2,16.4,29.91,North,349,0.0,3.0,85,0.00,,CLR,0.00,VWS V14.01,2013-12-19 08:16:00,
2013-12-19 02:21:00,20.1,16.3,29.91,North,1,3.0,4.0,85,0.00,,CLR,0.00,VWS V14.01,2013-12-19 08:21:00,
2013-12-19 02:26:00,20.1,16.3,29.91,NNE,26,0.0,5.0,85,0.00,,CLR,0.00,VWS V14.01,2013-12-19 08:26:00,
2013-12-19 02:31:00,20.2,16.4,29.91,NNW,342,0.0,4.0,85,0.00,,CLR,0.00,VWS V14.01,2013-12-19 08:31:00,
2013-12-19 02:36:00,20.1,16.3,29.92,North,5,0.0,4.0,85,0.00,,CLR,0.00,VWS V14.01,2013-12-19 08:36:00,
2013-12-19 02:41:00,20.1,16.3,29.92,NNE,26,0.0,4.0,85,0.00,,CLR,0.00,VWS V14.01,2013-12-19 08:41:00,
2013-12-19 02:46:00,20.1,16.3,29.92,NNE,12,2.0,5.0,85,0.00,,CLR,0.00,VWS V14.01,2013-12-19 08:46:00,
2013-12-19 02:51:00,20.2,16.1,29.92,North,359,1.0,5.0,84,0.00,,CLR,0.00,VWS V14.01,2013-12-19 08:51:00,
2013-12-19 02:56:00,20.2,15.9,29.92,NNE,15,1.0,8.0,83,0.00,,CLR,0.00,VWS V14.01,2013-12-19 08:56:00,
2013-12-19 03:01:00,20.1,15.8,29.92,NE,54,1.0,6.0,83,0.00,,CLR,0.00,VWS V14.01,2013-12-19 09:01:00,
2013-12-19 03:06:00,20.0,15.4,29.92,NNE,23,1.0,8.0,82,0.00,,CLR,0.00,VWS V14.01,2013-12-19 09:06:00,
2013-12-19 03:11:00,19.9,15.3,29.92,ENE,63,1.0,8.0,82,0.00,,CLR,0.00,VWS V14.01,2013-12-19 09:11:00,
2013-12-19 03:16:00,19.7,15.1,29.92,NE,44,0.0,8.0,82,0.00,,CLR,0.00,VWS V14.01,2013-12-19 09:16:00,
2013-12-19 03:21:00,19.6,15.3,29.93,NE,49,0.0,8.0,83,0.00,,CLR,0.00,VWS V14.01,2013-12-19 09:21:00,
2013-12-19 03:26:00,19.4,15.1,29.93,NE,43,2.0,8.0,83,0.00,,CLR,0.00,VWS V14.01,2013-12-19 09:26:00,
2013-12-19 03:31:00,19.2,14.6,29.94,ESE,105,1.0,7.0,82,0.00,,CLR,0.00,VWS V14.01,2013-12-19 09:31:00,
2013-12-19 03:36:00,19.1,14.5,29.94,NW,325,0.0,7.0,82,0.00,,CLR,0.00,VWS V14.01,2013-12-19 09:36:00,
2013-12-19 03:41:00,18.9,14.3,29.94,North,6,3.0,7.0,82,0.00,,CLR,0.00,VWS V14.01,2013-12-19 09:41:00,
2013-12-19 03:46:00,18.8,14.2,29.95,ENE,68,0.0,8.0,82,0.00,,CLR,0.00,VWS V14.01,2013-12-19 09:46:00,
2013-12-19 03:51:00,18.7,14.1,29.95,NNW,347,4.0,8.0,82,0.00,,BKN015,0.00,VWS V14.01,2013-12-19 09:51:00,
2013-12-19 03:56:00,18.5,13.9,29.95,NE,40,1.0,8.0,82,0.00,,CLR,0.00,VWS V14.01,2013-12-19 09:56:00,
2013-12-19 04:01:00,18.4,13.8,29.95,North,359,0.0,5.0,82,0.00,,BKN015,0.00,VWS V14.01,2013-12-19 10:01:00,
2013-12-19 04:06:00,18.2,13.6,29.96,NNE,22,0.0,5.0,82,0.00,,BKN015,0.00,VWS V14.01,2013-12-19 10:06:00,
2013-12-19 04:11:00,17.9,13.6,29.96,WNW,295,0.0,5.0,83,0.00,,BKN015,0.00,VWS V14.01,2013-12-19 10:11:00,
2013-12-19 04:16:00,17.8,13.5,29.97,NW,326,0.0,5.0,83,0.00,,CLR,0.00,VWS V14.01,2013-12-19 10:16:00,
2013-12-19 04:21:00,17.5,13.2,29.97,NE,51,0.0,5.0,83,0.00,,BKN015,0.00,VWS V14.01,2013-12-19 10:21:00,
2013-12-19 04:26:00,17.3,13.3,29.97,NNW,330,0.0,5.0,84,0.00,,BKN015,0.00,VWS V14.01,2013-12-19 10:26:00,
2013-12-19 04:31:00,17.1,13.1,29.97,WNW,298,0.0,5.0,84,0.00,,SCT015,0.00,VWS V14.01,2013-12-19 10:31:00,
2013-12-19 04:36:00,16.9,12.9,29.98,NNW,345,0.0,5.0,84,0.00,,CLR,0.00,VWS V14.01,2013-12-19 10:36:00,
2013-12-19 04:41:00,16.7,13.0,29.97,North,349,0.0,5.0,85,0.00,,CLR,0.00,VWS V14.01,2013-12-19 10:41:00,
2013-12-19 04:46:00,16.6,12.9,29.99,WNW,299,0.0,5.0,85,0.00,,CLR,0.00,VWS V14.01,2013-12-19 10:46:00,
2013-12-19 04:51:00,16.4,12.7,29.99,ESE,116,0.0,5.0,85,0.00,,SCT120,0.00,VWS V14.01,2013-12-19 10:51:00,
2013-12-19 04:56:00,16.4,12.7,29.99,NNE,24,0.0,6.0,85,0.00,,SCT015,0.00,VWS V14.01,2013-12-19 10:56:00,
2013-12-19 05:01:00,16.5,12.8,29.99,NNE,26,2.0,7.0,85,0.00,,SCT120,0.00,VWS V14.01,2013-12-19 11:01:00,
2013-12-19 05:06:00,16.6,12.9,29.98,NNW,338,9.0,9.0,85,0.00,,SCT120,0.00,VWS V14.01,2013-12-19 11:06:00,
2013-12-19 05:11:00,16.7,12.7,29.98,NNE,25,2.0,10.0,84,0.00,,SCT120,0.00,VWS V14.01,2013-12-19 11:11:00,
2013-12-19 05:16:00,16.6,12.6,29.99,NE,52,2.0,10.0,84,0.00,,SCT015,0.00,VWS V14.01,2013-12-19 11:16:00,
2013-12-19 05:21:00,16.5,12.5,29.99,NNE,29,6.0,10.0,84,0.00,,SCT120,0.00,VWS V14.01,2013-12-19 11:21:00,
2013-12-19 05:26:00,16.4,12.4,29.98,NE,54,1.0,10.0,84,0.00,,SCT120,0.00,VWS V14.01,2013-12-19 11:26:00,
2013-12-19 05:31:00,16.3,12.3,29.99,North,8,2.0,8.0,84,0.00,,BKN120,0.00,VWS V14.01,2013-12-19 11:31:00,
2013-12-19 05:36:00,16.2,12.2,29.99,NNE,33,1.0,8.0,84,0.00,,OVC017,0.00,VWS V14.01,2013-12-19 11:36:00,
2013-12-19 05:41:00,16.2,12.2,29.99,NNW,346,3.0,8.0,84,0.00,,OVC017,0.00,VWS V14.01,2013-12-19 11:41:00,
2013-12-19 05:46:00,16.1,12.1,29.99,ENE,62,0.0,8.0,84,0.00,,OVC017,0.00,VWS V14.01,2013-12-19 11:46:00,
2013-12-19 05:51:00,16.1,12.1,29.99,NE,43,0.0,8.0,84,0.00,,OVC017,0.00,VWS V14.01,2013-12-19 11:51:00,
2013-12-19 05:56:00,16.0,12.0,30.00,NNW,344,2.0,8.0,84,0.00,,OVC017,0.00,VWS V14.01,2013-12-19 11:56:00,
2013-12-19 06:01:00,16.0,12.0,30.00,NW,326,2.0,5.0,84,0.00,,OVC017,0.00,VWS V14.01,2013-12-19 12:01:00,
2013-12-19 06:06:00,16.0,12.0,30.00,NE,41,4.0,10.0,84,0.00,,OVC017,0.00,VWS V14.01,2013-12-19 12:06:00,
2013-12-19 06:11:00,16.0,12.0,30.00,NNE,32,4.0,10.0,84,0.00,,OVC017,0.00,VWS V14.01,2013-12-19 12:11:00,
2013-12-19 06:16:00,15.9,11.9,30.01,NNE,19,6.0,10.0,84,0.00,,OVC017,0.00,VWS V14.01,2013-12-19 12:16:00,
2013-12-19 06:21:00,15.7,11.5,30.01,NE,46,4.0,12.0,83,0.00,,OVC017,0.00,VWS V14.01,2013-12-19 12:21:00,
2013-12-19 06:26:00,15.6,11.4,30.02,ENE,58,5.0,12.0,83,0.00,,OVC017,0.00,VWS V14.01,2013-12-19 12:26:00,
2013-12-19 06:31:00,15.5,11.3,30.03,NE,37,1.0,13.0,83,0.00,,OVC017,0.00,VWS V14.01,2013-12-19 12:31:00,
2013-12-19 06:36:00,15.5,11.3,30.03,NE,43,0.0,13.0,83,0.00,,OVC017,0.00,VWS V14.01,2013-12-19 12:36:00,
2013-12-19 06:41:00,15.4,11.2,30.04,NE,43,4.0,13.0,83,0.00,,OVC017,0.00,VWS V14.01,2013-12-19 12:41:00,
2013-12-19 06:46:00,15.3,11.1,30.05,NW,319,3.0,13.0,83,0.00,,OVC017,0.00,VWS V14.01,2013-12-19 12:46:00,
2013-12-19 06:51:00,15.3,11.1,30.05,ENE,65,1.0,13.0,83,0.00,,OVC017,0.00,VWS V14.01,2013-12-19 12:51:00,
2013-12-19 06:56:00,15.2,11.0,30.05,East,93,1.0,13.0,83,0.00,,OVC017,0.00,VWS V14.01,2013-12-19 12:56:00,
2013-12-19 07:01:00,15.1,10.9,30.05,NE,37,2.0,4.0,83,0.00,,OVC017,0.00,VWS V14.01,2013-12-19 13:01:00,
2013-12-19 07:05:00,15.0,10.8,30.05,NE,49,2.0,6.0,83,0.00,,OVC017,0.00,VWS V14.01,2013-12-19 13:05:00,
2013-12-19 07:10:00,14.9,10.7,30.05,East,98,2.0,8.0,83,0.00,,OVC017,0.00,VWS V14.01,2013-12-19 13:10:00,
2013-12-19 07:15:00,14.8,10.6,30.06,NE,40,1.0,8.0,83,0.00,,OVC017,0.00,VWS V14.01,2013-12-19 13:15:00,
2013-12-19 07:20:00,14.8,10.6,30.06,NE,41,1.0,8.0,83,0.00,,OVC017,0.00,VWS V14.01,2013-12-19 13:20:00,
2013-12-19 07:25:00,14.7,10.5,30.06,NE,44,2.0,8.0,83,0.00,,OVC017,0.00,VWS V14.01,2013-12-19 13:25:00,
2013-12-19 07:30:00,14.5,10.3,30.06,NE,43,3.0,8.0,83,0.00,,OVC017,0.00,VWS V14.01,2013-12-19 13:30:00,
2013-12-19 07:35:00,14.4,10.2,30.06,East,85,1.0,8.0,83,0.00,,OVC017,0.00,VWS V14.01,2013-12-19 13:35:00,
2013-12-19 07:40:00,14.3,10.1,30.06,NE,50,3.0,8.0,83,0.00,,OVC017,0.00,VWS V14.01,2013-12-19 13:40:00,
2013-12-19 07:45:00,14.2,9.7,30.06,NNE,22,1.0,10.0,82,0.00,,OVC017,0.00,VWS V14.01,2013-12-19 13:45:00,
2013-12-19 07:50:00,14.1,9.6,30.07,ENE,63,2.0,10.0,82,0.00,,OVC017,0.00,VWS V14.01,2013-12-19 13:50:00,
2013-12-19 07:55:00,14.0,9.5,30.07,NE,50,3.0,10.0,82,0.00,,OVC017,0.00,VWS V14.01,2013-12-19 13:55:00,
2013-12-19 08:00:00,13.9,9.4,30.06,ENE,58,0.0,9.0,82,0.00,,OVC017,0.00,VWS V14.01,2013-12-19 14:00:00,
2013-12-19 08:05:00,13.7,9.2,30.06,NNE,23,2.0,9.0,82,0.00,,OVC017,0.00,VWS V14.01,2013-12-19 14:05:00,
2013-12-19 08:11:00,13.6,9.1,30.07,NNE,29,3.0,9.0,82,0.00,,OVC017,0.00,VWS V14.01,2013-12-19 14:11:00,
2013-12-19 08:16:00,13.4,8.9,30.07,NE,43,3.0,9.0,82,0.00,,OVC017,0.00,VWS V14.01,2013-12-19 14:16:00,
2013-12-19 08:21:00,13.3,8.8,30.07,NE,46,1.0,9.0,82,0.00,,OVC017,0.00,VWS V14.01,2013-12-19 14:21:00,
2013-12-19 08:26:00,13.1,8.9,30.07,NE,49,0.0,9.0,83,0.00,,OVC017,0.00,VWS V14.01,2013-12-19 14:26:00,
2013-12-19 08:31:00,12.9,8.7,30.08,NE,49,3.0,5.0,83,0.00,,OVC017,0.00,VWS V14.01,2013-12-19 14:31:00,
2013-12-19 08:36:00,12.8,8.6,30.08,NE,39,4.0,9.0,83,0.00,,SCT120,0.00,VWS V14.01,2013-12-19 14:36:00,
2013-12-19 08:41:00,12.6,8.2,30.08,NE,46,0.0,9.0,82,0.00,,SCT120,0.00,VWS V14.01,2013-12-19 14:41:00,
2013-12-19 08:46:00,12.5,8.3,30.09,NNE,33,2.0,9.0,83,0.00,,SCT120,0.00,VWS V14.01,2013-12-19 14:46:00,
2013-12-19 08:51:00,12.6,8.4,30.09,NE,49,3.0,9.0,83,0.00,,CLR,0.00,VWS V14.01,2013-12-19 14:51:00,
2013-12-19 08:56:00,12.5,8.1,30.09,NE,46,1.0,9.0,82,0.00,,CLR,0.00,VWS V14.01,2013-12-19 14:56:00,
2013-12-19 09:01:00,12.4,8.0,30.09,NNE,27,3.0,6.0,82,0.00,,CLR,0.00,VWS V14.01,2013-12-19 15:01:00,
2013-12-19 09:06:00,12.4,8.0,30.09,NE,51,4.0,7.0,82,0.00,,CLR,0.00,VWS V14.01,2013-12-19 15:06:00,
2013-12-19 09:11:00,12.4,7.7,30.09,NE,43,5.0,8.0,81,0.00,,CLR,0.00,VWS V14.01,2013-12-19 15:11:00,
2013-12-19 09:16:00,12.2,7.5,30.09,NE,43,3.0,8.0,81,0.00,,CLR,0.00,VWS V14.01,2013-12-19 15:16:00,
2013-12-19 09:21:00,12.1,7.4,30.09,NE,54,7.0,9.0,81,0.00,,OVC017,0.00,VWS V14.01,2013-12-19 15:21:00,
2013-12-19 09:26:00,12.0,7.3,30.10,NE,43,5.0,9.0,81,0.00,,OVC017,0.00,VWS V14.01,2013-12-19 15:26:00,
2013-12-19 09:31:00,11.9,6.9,30.10,NE,39,3.0,8.0,80,0.00,,OVC017,0.00,VWS V14.01,2013-12-19 15:31:00,
2013-12-19 09:36:00,11.9,6.9,30.11,NNE,18,2.0,9.0,80,0.00,,SCT120,0.00,VWS V14.01,2013-12-19 15:36:00,
2013-12-19 09:40:00,12.1,7.1,30.11,NE,49,3.0,9.0,80,0.00,,SCT120,0.00,VWS V14.01,2013-12-19 15:40:00,
2013-12-19 09:45:00,12.2,7.2,30.11,NE,51,2.0,9.0,80,0.00,,SCT120,0.00,VWS V14.01,2013-12-19 15:45:00,
2013-12-19 09:50:00,12.3,7.0,30.11,NE,54,7.0,9.0,79,0.00,,SCT120,0.00,VWS V14.01,2013-12-19 15:50:00,
2013-12-19 09:55:00,12.5,7.2,30.10,NE,37,4.0,10.0,79,0.00,,SCT120,0.00,VWS V14.01,2013-12-19 15:55:00,
2013-12-19 10:01:00,12.7,7.4,30.10,NE,55,3.0,7.0,79,0.00,,SCT120,0.00,VWS V14.01,2013-12-19 16:01:00,
2013-12-19 10:06:00,12.9,7.3,30.10,NE,49,5.0,9.0,78,0.00,,SCT120,0.00,VWS V14.01,2013-12-19 16:06:00,
2013-12-19 10:11:00,13.0,7.4,30.10,NE,46,6.0,9.0,78,0.00,,SCT120,0.00,VWS V14.01,2013-12-19 16:11:00,
2013-12-19 10:16:00,13.2,7.6,30.11,NE,36,5.0,10.0,78,0.00,,SCT120,0.00,VWS V14.01,2013-12-19 16:16:00,
2013-12-19 10:21:00,13.3,7.4,30.11,NNE,32,5.0,10.0,77,0.00,,SCT120,0.00,VWS V14.01,2013-12-19 16:21:00,
2013-12-19 10:26:00,13.4,7.6,30.11,ENE,63,4.0,10.0,77,0.00,,SCT120,0.00,VWS V14.01,2013-12-19 16:26:00,
2013-12-19 10:31:00,13.5,7.7,30.11,NNE,32,4.0,9.0,77,0.00,,SCT120,0.00,VWS V14.01,2013-12-19 16:31:00,
2013-12-19 10:36:00,13.5,7.7,30.11,NE,46,2.0,10.0,77,0.00,,CLR,0.00,VWS V14.01,2013-12-19 16:36:00,
2013-12-19 10:41:00,13.4,7.3,30.11,NE,44,9.0,12.0,76,0.00,,CLR,0.00,VWS V14.01,2013-12-19 16:41:00,
2013-12-19 10:46:00,13.3,7.4,30.12,NE,46,3.0,12.0,77,0.00,,CLR,0.00,VWS V14.01,2013-12-19 16:46:00,
2013-12-19 10:51:00,13.4,7.6,30.13,NE,49,4.0,12.0,77,0.00,,SCT120,0.00,VWS V14.01,2013-12-19 16:51:00,
2013-12-19 10:56:00,13.4,7.3,30.13,NNE,13,7.0,12.0,76,0.00,,SCT120,0.00,VWS V14.01,2013-12-19 16:56:00,
2013-12-19 11:01:00,13.4,7.3,30.13,NE,44,4.0,10.0,76,0.00,,SCT120,0.00,VWS V14.01,2013-12-19 17:01:00,
2013-12-19 11:06:00,13.5,7.7,30.13,NE,40,2.0,10.0,77,0.00,,SCT120,0.00,VWS V14.01,2013-12-19 17:06:00,
2013-12-19 11:11:00,13.6,7.5,30.13,NE,56,5.0,10.0,76,0.00,,SCT120,0.00,VWS V14.01,2013-12-19 17:11:00,
2013-12-19 11:16:00,13.5,7.4,30.12,NE,43,4.0,12.0,76,0.00,,SCT120,0.00,VWS V14.01,2013-12-19 17:16:00,
2013-12-19 11:21:00,13.6,7.5,30.13,NE,44,2.0,12.0,76,0.00,,SCT120,0.00,VWS V14.01,2013-12-19 17:21:00,
2013-12-19 11:26:00,13.7,7.8,30.13,NE,43,3.0,12.0,77,0.00,,SCT120,0.00,VWS V14.01,2013-12-19 17:26:00,
2013-12-19 11:31:00,13.8,7.7,30.13,NE,43,3.0,7.0,76,0.00,,SCT120,0.00,VWS V14.01,2013-12-19 17:31:00,
2013-12-19 11:36:00,13.8,7.7,30.13,NNE,26,5.0,7.0,76,0.00,,OVC120,0.00,VWS V14.01,2013-12-19 17:36:00,
2013-12-19 11:41:00,13.7,7.6,30.11,ENE,65,4.0,8.0,76,0.00,,OVC120,0.00,VWS V14.01,2013-12-19 17:41:00,
2013-12-19 11:46:00,13.7,7.6,30.11,NE,54,6.0,8.0,76,0.00,,OVC120,0.00,VWS V14.01,2013-12-19 17:46:00,
2013-12-19 11:51:00,13.7,7.6,30.11,ENE,67,13.0,14.0,76,0.00,,OVC120,0.00,VWS V14.01,2013-12-19 17:51:00,
2013-12-19 11:56:00,13.7,7.6,30.11,NE,53,7.0,14.0,76,0.00,,OVC120,0.00,VWS V14.01,2013-12-19 17:56:00,
2013-12-19 12:01:00,13.7,7.6,30.11,NE,49,7.0,11.0,76,0.00,,OVC120,0.00,VWS V14.01,2013-12-19 18:01:00,
2013-12-19 12:05:00,13.7,7.3,30.11,NE,50,7.0,11.0,75,0.00,,OVC120,0.00,VWS V14.01,2013-12-19 18:05:00,
2013-12-19 12:10:00,13.8,7.4,30.11,NE,53,7.0,12.0,75,0.00,,OVC120,0.00,VWS V14.01,2013-12-19 18:10:00,
2013-12-19 12:15:00,13.9,7.4,30.11,ENE,61,6.0,17.0,75,0.00,,OVC120,0.00,VWS V14.01,2013-12-19 18:15:00,
2013-12-19 12:20:00,13.9,7.4,30.10,NE,53,8.0,17.0,75,0.00,,BKN120,0.00,VWS V14.01,2013-12-19 18:20:00,
2013-12-19 12:25:00,13.9,7.4,30.10,ENE,65,5.0,17.0,75,0.00,,BKN120,0.00,VWS V14.01,2013-12-19 18:25:00,
2013-12-19 12:30:00,14.0,7.6,30.10,NE,53,7.0,16.0,75,0.00,,BKN120,0.00,VWS V14.01,2013-12-19 18:30:00,
2013-12-19 12:35:00,14.0,7.6,30.11,ENE,61,5.0,16.0,75,0.00,,SCT110,0.00,VWS V14.01,2013-12-19 18:35:00,
2013-12-19 12:40:00,14.0,7.6,30.10,NE,44,5.0,16.0,75,0.00,,SCT110,0.00,VWS V14.01,2013-12-19 18:40:00,
2013-12-19 12:45:00,14.1,7.7,30.10,NNE,29,4.0,16.0,75,0.00,,SCT110,0.00,VWS V14.01,2013-12-19 18:45:00,
2013-12-19 12:50:00,14.2,7.7,30.10,NE,48,5.0,16.0,75,0.00,,CLR,0.00,VWS V14.01,2013-12-19 18:50:00,
2013-12-19 12:55:00,14.1,7.7,30.09,NE,43,6.0,16.0,75,0.00,,CLR,0.00,VWS V14.01,2013-12-19 18:55:00,
2013-12-19 13:00:00,14.1,7.7,30.09,ENE,63,8.0,14.0,75,0.00,,CLR,0.00,VWS V14.01,2013-12-19 19:00:00,
2013-12-19 13:05:00,14.0,7.8,30.09,NE,44,3.0,14.0,76,0.00,,CLR,0.00,VWS V14.01,2013-12-19 19:05:00,
2013-12-19 13:10:00,14.0,7.8,30.09,ENE,67,4.0,14.0,76,0.00,,CLR,0.00,VWS V14.01,2013-12-19 19:10:00,
2013-12-19 13:15:00,14.0,7.8,30.08,NE,48,5.0,14.0,76,0.00,,CLR,0.00,VWS V14.01,2013-12-19 19:15:00,
2013-12-19 13:20:00,13.9,7.8,30.08,ENE,58,5.0,14.0,76,0.00,,CLR,0.00,VWS V14.01,2013-12-19 19:20:00,
2013-12-19 13:24:00,14.0,7.8,30.08,NE,39,5.0,14.0,76,0.00,,CLR,0.00,VWS V14.01,2013-12-19 19:24:00,
2013-12-19 13:29:00,14.0,8.1,30.08,NE,46,6.0,8.0,77,0.00,,CLR,0.00,VWS V14.01,2013-12-19 19:29:00,
2013-12-19 13:34:00,14.0,7.8,30.08,NE,40,5.0,9.0,76,0.00,,BKN110,0.00,VWS V14.01,2013-12-19 19:34:00,
2013-12-19 13:39:00,14.0,7.8,30.08,ENE,58,4.0,9.0,76,0.00,,BKN110,0.00,VWS V14.01,2013-12-19 19:39:00,
2013-12-19 13:44:00,14.1,7.9,30.07,NE,50,7.0,9.0,76,0.00,,BKN110,0.00,VWS V14.01,2013-12-19 19:44:00,
2013-12-19 13:49:00,14.1,7.9,30.08,NE,51,3.0,9.0,76,0.00,,OVC120,0.00,VWS V14.01,2013-12-19 19:49:00,
2013-12-19 13:54:00,14.1,7.9,30.08,NE,46,5.0,9.0,76,0.00,,OVC120,0.00,VWS V14.01,2013-12-19 19:54:00,
2013-12-19 13:59:00,14.1,8.2,30.08,NE,46,7.0,7.0,77,0.00,,OVC120,0.00,VWS V14.01,2013-12-19 19:59:00,
2013-12-19 14:04:00,14.2,8.0,30.09,NE,40,3.0,8.0,76,0.00,,OVC120,0.00,VWS V14.01,2013-12-19 20:04:00,
2013-12-19 14:09:00,14.3,8.1,30.09,NE,39,1.0,8.0,76,0.00,,OVC120,0.00,VWS V14.01,2013-12-19 20:09:00,
2013-12-19 14:14:00,14.4,8.5,30.09,ENE,58,4.0,8.0,77,0.00,,OVC120,0.00,VWS V14.01,2013-12-19 20:14:00,
2013-12-19 14:19:00,14.4,8.5,30.09,NE,46,5.0,8.0,77,0.00,,CLR,0.00,VWS V14.01,2013-12-19 20:19:00,
2013-12-19 14:24:00,14.4,8.5,30.09,ENE,60,6.0,8.0,77,0.00,,CLR,0.00,VWS V14.01,2013-12-19 20:24:00,
2013-12-19 14:29:00,14.5,8.6,30.09,NE,55,3.0,4.0,77,0.00,,CLR,0.00,VWS V14.01,2013-12-19 20:29:00,
2013-12-19 14:34:00,14.6,8.7,30.09,NE,41,4.0,6.0,77,0.00,,BKN120,0.00,VWS V14.01,2013-12-19 20:34:00,
2013-12-19 14:39:00,14.7,8.8,30.09,NE,40,4.0,6.0,77,0.00,,BKN120,0.00,VWS V14.01,2013-12-19 20:39:00,
2013-12-19 14:44:00,14.7,8.8,30.10,NE,49,3.0,7.0,77,0.00,,BKN120,0.00,VWS V14.01,2013-12-19 20:44:00,
2013-12-19 14:49:00,14.8,8.9,30.10,NE,51,2.0,7.0,77,0.00,,OVC120,0.00,VWS V14.01,2013-12-19 20:49:00,
2013-12-19 14:54:00,14.9,9.0,30.10,NE,43,4.0,7.0,77,0.00,,OVC120,0.00,VWS V14.01,2013-12-19 20:54:00,
2013-12-19 14:59:00,14.9,9.0,30.10,NE,34,3.0,6.0,77,0.00,,OVC120,0.00,VWS V14.01,2013-12-19 20:59:00,
2013-12-19 15:04:00,15.0,9.1,30.09,NE,35,3.0,6.0,77,0.00,,OVC120,0.00,VWS V14.01,2013-12-19 21:04:00,
2013-12-19 15:09:00,15.0,9.1,30.09,NE,49,4.0,7.0,77,0.00,,OVC120,0.00,VWS V14.01,2013-12-19 21:09:00,
2013-12-19 15:14:00,15.1,9.2,30.09,NNE,21,4.0,7.0,77,0.00,,OVC120,0.00,VWS V14.01,2013-12-19 21:14:00,
2013-12-19 15:19:00,15.1,9.2,30.09,NE,49,3.0,10.0,77,0.00,,OVC120,0.00,VWS V14.01,2013-12-19 21:19:00,
2013-12-19 15:24:00,15.1,9.2,30.09,NE,43,2.0,10.0,77,0.00,,OVC120,0.00,VWS V14.01,2013-12-19 21:24:00,
2013-12-19 15:29:00,15.2,9.6,30.09,NNE,26,2.0,8.0,78,0.00,,OVC120,0.00,VWS V14.01,2013-12-19 21:29:00,
2013-12-19 15:34:00,15.2,9.3,30.09,NE,40,4.0,10.0,77,0.00,,OVC100,0.00,VWS V14.01,2013-12-19 21:34:00,
2013-12-19 15:39:00,15.3,9.4,30.09,NE,50,5.0,10.0,77,0.00,,OVC100,0.00,VWS V14.01,2013-12-19 21:39:00,
2013-12-19 15:44:00,15.3,9.7,30.09,NE,46,5.0,10.0,78,0.00,,OVC100,0.00,VWS V14.01,2013-12-19 21:44:00,
2013-12-19 15:49:00,15.4,9.5,30.09,NE,47,4.0,11.0,77,0.00,,OVC100,0.00,VWS V14.01,2013-12-19 21:49:00,
2013-12-19 15:54:00,15.4,9.8,30.09,NE,44,3.0,11.0,78,0.00,,OVC100,0.00,VWS V14.01,2013-12-19 21:54:00,
2013-12-19 15:59:00,15.4,9.5,30.09,NE,46,8.0,10.0,77,0.00,,OVC100,0.00,VWS V14.01,2013-12-19 21:59:00,
2013-12-19 16:04:00,15.5,9.6,30.09,NE,46,6.0,10.0,77,0.00,,OVC100,0.00,VWS V14.01,2013-12-19 22:04:00,
2013-12-19 16:09:00,15.5,9.6,30.09,ENE,68,3.0,10.0,77,0.00,,OVC100,0.00,VWS V14.01,2013-12-19 22:09:00,
2013-12-19 16:14:00,15.5,9.9,30.09,ENE,63,5.0,10.0,78,0.00,,OVC100,0.00,VWS V14.01,2013-12-19 22:14:00,
2013-12-19 16:19:00,15.5,9.9,30.09,NE,49,4.0,10.0,78,0.00,,OVC100,0.00,VWS V14.01,2013-12-19 22:19:00,
2013-12-19 16:24:00,15.5,9.9,30.10,NE,39,2.0,10.0,78,0.00,,OVC100,0.00,VWS V14.01,2013-12-19 22:24:00,
2013-12-19 16:29:00,15.5,9.9,30.09,NE,41,6.0,6.0,78,0.00,,OVC100,0.00,VWS V14.01,2013-12-19 22:29:00,
2013-12-19 16:34:00,15.4,9.8,30.09,ENE,70,1.0,7.0,78,0.00,,OVC090,0.00,VWS V14.01,2013-12-19 22:34:00,
2013-12-19 16:39:00,15.4,9.8,30.09,NE,46,0.0,7.0,78,0.00,,OVC090,0.00,VWS V14.01,2013-12-19 22:39:00,
2013-12-19 16:44:00,15.3,9.7,30.09,NE,53,1.0,7.0,78,0.00,,OVC090,0.00,VWS V14.01,2013-12-19 22:44:00,
2013-12-19 16:49:00,15.1,9.5,30.09,North,1,4.0,7.0,78,0.00,,OVC090,0.00,VWS V14.01,2013-12-19 22:49:00,
2013-12-19 16:54:00,15.0,9.4,30.09,NE,53,1.0,7.0,78,0.00,,OVC090,0.00,VWS V14.01,2013-12-19 22:54:00,
2013-12-19 16:59:00,15.0,9.4,30.09,NE,44,2.0,4.0,78,0.00,,OVC090,0.00,VWS V14.01,2013-12-19 22:59:00,
2013-12-19 17:04:00,14.9,9.3,30.09,NE,53,1.0,4.0,78,0.00,,OVC090,0.00,VWS V14.01,2013-12-19 23:04:00,
2013-12-19 17:09:00,14.9,9.3,30.09,ENE,58,1.0,6.0,78,0.00,,OVC090,0.00,VWS V14.01,2013-12-19 23:09:00,
2013-12-19 17:14:00,14.8,9.5,30.09,NE,40,3.0,7.0,79,0.00,,OVC090,0.00,VWS V14.01,2013-12-19 23:14:00,
2013-12-19 17:19:00,14.8,9.5,30.09,NE,36,3.0,7.0,79,0.00,,OVC090,0.00,VWS V14.01,2013-12-19 23:19:00,
2013-12-19 17:24:00,14.8,9.5,30.10,NE,39,4.0,7.0,79,0.00,,OVC090,0.00,VWS V14.01,2013-12-19 23:24:00,
2013-12-19 17:29:00,14.8,9.5,30.10,NE,46,4.0,6.0,79,0.00,,OVC090,0.00,VWS V14.01,2013-12-19 23:29:00,
2013-12-19 17:34:00,14.8,9.8,30.10,NE,46,4.0,6.0,80,0.00,,OVC080,0.00,VWS V14.01,2013-12-19 23:34:00,
2013-12-19 17:39:00,14.9,9.9,30.10,NNE,30,6.0,8.0,80,0.00,,OVC080,0.00,VWS V14.01,2013-12-19 23:39:00,
2013-12-19 17:44:00,14.9,9.9,30.10,NE,41,2.0,8.0,80,0.00,,OVC080,0.00,VWS V14.01,2013-12-19 23:44:00,
2013-12-19 17:49:00,14.9,9.9,30.10,NE,53,3.0,8.0,80,0.00,,OVC070,0.00,VWS V14.01,2013-12-19 23:49:00,
2013-12-19 17:54:00,14.9,9.9,30.09,NNE,29,5.0,8.0,80,0.00,,OVC070,0.00,VWS V14.01,2013-12-19 23:54:00,
2013-12-19 17:59:00,14.8,10.0,30.10,NE,41,4.0,7.0,81,0.00,,OVC070,0.00,VWS V14.01,2013-12-19 23:59:00,
2013-12-19 18:04:00,14.9,10.1,30.10,NE,34,5.0,8.0,81,0.00,,OVC060,0.00,VWS V14.01,2013-12-20 00:04:00,
2013-12-19 18:09:00,14.9,10.1,30.10,NE,37,2.0,9.0,81,0.00,,OVC060,0.00,VWS V14.01,2013-12-20 00:09:00,
2013-12-19 18:14:00,14.9,10.1,30.10,NE,43,4.0,9.0,81,0.00,,OVC060,0.00,VWS V14.01,2013-12-20 00:14:00,
2013-12-19 18:19:00,14.9,10.1,30.11,NE,34,3.0,9.0,81,0.00,,OVC060,0.00,VWS V14.01,2013-12-20 00:19:00,
2013-12-19 18:24:00,14.9,10.4,30.11,NE,35,4.0,9.0,82,0.00,,OVC060,0.00,VWS V14.01,2013-12-20 00:24:00,
2013-12-19 18:29:00,14.9,10.4,30.11,NE,43,7.0,7.0,82,0.00,,OVC060,0.00,VWS V14.01,2013-12-20 00:29:00,
2013-12-19 18:34:00,15.0,10.5,30.11,ENE,58,6.0,10.0,82,0.00,,OVC060,0.00,VWS V14.01,2013-12-20 00:34:00,
2013-12-19 18:39:00,15.1,10.6,30.10,ENE,59,6.0,11.0,82,0.00,,OVC060,0.00,VWS V14.01,2013-12-20 00:39:00,
2013-12-19 18:44:00,15.1,10.6,30.10,NE,49,5.0,11.0,82,0.00,,OVC060,0.00,VWS V14.01,2013-12-20 00:44:00,
2013-12-19 18:49:00,15.2,10.7,30.10,ENE,64,6.0,11.0,82,0.00,,OVC070,0.00,VWS V14.01,2013-12-20 00:49:00,
2013-12-19 18:54:00,15.2,10.7,30.09,NNE,30,5.0,11.0,82,0.00,,OVC070,0.00,VWS V14.01,2013-12-20 00:54:00,
2013-12-19 18:59:00,15.2,10.7,30.10,NE,48,9.0,11.0,82,0.00,,OVC070,0.00,VWS V14.01,2013-12-20 00:59:00,
2013-12-19 19:04:00,15.3,10.8,30.10,ENE,61,9.0,11.0,82,0.00,,OVC070,0.00,VWS V14.01,2013-12-20 01:04:00,
2013-12-19 19:09:00,15.4,10.9,30.11,ENE,58,5.0,11.0,82,0.00,,OVC070,0.00,VWS V14.01,2013-12-20 01:09:00,
2013-12-19 19:14:00,15.4,11.2,30.11,NE,49,4.0,11.0,83,0.00,,OVC070,0.00,VWS V14.01,2013-12-20 01:14:00,
2013-12-19 19:19:00,15.4,11.2,30.11,NNE,33,6.0,11.0,83,0.00,,OVC060,0.00,VWS V14.01,2013-12-20 01:19:00,
2013-12-19 19:24:00,15.5,11.3,30.11,NNE,33,5.0,11.0,83,0.00,,OVC060,0.00,VWS V14.01,2013-12-20 01:24:00,
2013-12-19 19:29:00,15.5,11.3,30.12,NE,46,6.0,9.0,83,0.00,,OVC060,0.00,VWS V14.01,2013-12-20 01:29:00,
2013-12-19 19:34:00,15.5,11.3,30.12,NE,46,4.0,9.0,83,0.00,,OVC040,0.00,VWS V14.01,2013-12-20 01:34:00,
2013-12-19 19:39:00,15.6,11.4,30.12,NNE,29,6.0,9.0,83,0.00,,OVC040,0.00,VWS V14.01,2013-12-20 01:39:00,
2013-12-19 19:44:00,15.6,11.4,30.12,NE,39,3.0,9.0,83,0.00,,OVC040,0.00,VWS V14.01,2013-12-20 01:44:00,
2013-12-19 19:49:00,15.6,11.4,30.12,NNE,29,5.0,9.0,83,0.00,,OVC043,0.00,VWS V14.01,2013-12-20 01:49:00,
2013-12-19 19:54:00,15.6,11.6,30.12,NE,36,4.0,9.0,84,0.00,,OVC043,0.00,VWS V14.01,2013-12-20 01:54:00,
2013-12-19 19:59:00,15.5,11.5,30.12,NE,43,6.0,7.0,84,0.00,,OVC043,0.00,VWS V14.01,2013-12-20 01:59:00,
2013-12-19 20:04:00,15.5,11.8,30.12,NE,47,3.0,7.0,85,0.00,,OVC043,0.00,VWS V14.01,2013-12-20 02:04:00,
2013-12-19 20:09:00,15.4,11.7,30.12,NE,39,6.0,9.0,85,0.00,,OVC043,0.00,VWS V14.01,2013-12-20 02:09:00,
2013-12-19 20:14:00,15.3,11.9,30.12,NE,43,2.0,9.0,86,0.00,,OVC043,0.00,VWS V14.01,2013-12-20 02:14:00,
2013-12-19 20:19:00,15.2,11.8,30.12,ENE,57,2.0,9.0,86,0.00,,OVC043,0.00,VWS V14.01,2013-12-20 02:19:00,
2013-12-19 20:24:00,15.1,11.7,30.12,NE,43,3.0,9.0,86,0.00,,OVC043,0.00,VWS V14.01,2013-12-20 02:24:00,
2013-12-19 20:29:00,15.1,11.9,30.12,NE,37,0.0,7.0,87,0.00,,OVC043,0.00,VWS V14.01,2013-12-20 02:29:00,
2013-12-19 20:34:00,15.0,11.8,30.12,NE,46,1.0,7.0,87,0.00,,,0.00,VWS V14.01,2013-12-20 02:34:00,
2013-12-19 20:39:00,15.0,11.8,30.12,NE,44,3.0,7.0,87,0.00,,,0.00,VWS V14.01,2013-12-20 02:39:00,
2013-12-19 20:44:00,14.9,12.0,30.12,NE,56,3.0,8.0,88,0.00,,,0.00,VWS V14.01,2013-12-20 02:44:00,
2013-12-19 20:49:00,14.9,12.0,30.12,NE,44,1.0,8.0,88,0.00,,,0.00,VWS V14.01,2013-12-20 02:49:00,
2013-12-19 20:54:00,14.9,12.0,30.12,NE,39,5.0,8.0,88,0.00,,,0.00,VWS V14.01,2013-12-20 02:54:00,
2013-12-19 20:59:00,14.9,12.0,30.12,NE,43,3.0,6.0,88,0.00,,,0.00,VWS V14.01,2013-12-20 02:59:00,
2013-12-19 21:04:00,14.8,11.9,30.12,NE,37,2.0,7.0,88,0.00,,,0.00,VWS V14.01,2013-12-20 03:04:00,
2013-12-19 21:09:00,14.8,11.9,30.12,NE,49,2.0,7.0,88,0.00,,,0.00,VWS V14.01,2013-12-20 03:09:00,
2013-12-19 21:14:00,14.8,11.9,30.12,NE,49,1.0,7.0,88,0.00,,,0.00,VWS V14.01,2013-12-20 03:14:00,
2013-12-19 21:19:00,14.7,11.8,30.12,NE,43,3.0,7.0,88,0.00,,,0.00,VWS V14.01,2013-12-20 03:19:00,
2013-12-19 21:24:00,14.7,12.1,30.11,ENE,63,2.0,7.0,89,0.00,,,0.00,VWS V14.01,2013-12-20 03:24:00,
2013-12-19 21:29:00,14.6,11.9,30.11,NE,43,2.0,4.0,89,0.00,,,0.00,VWS V14.01,2013-12-20 03:29:00,
2013-12-19 21:34:00,14.4,11.8,30.11,ENE,63,3.0,4.0,89,0.00,,,0.00,VWS V14.01,2013-12-20 03:34:00,
2013-12-19 21:39:00,14.3,11.7,30.11,NE,40,2.0,4.0,89,0.00,,,0.00,VWS V14.01,2013-12-20 03:39:00,
2013-12-19 21:44:00,14.0,11.4,30.11,NNE,23,1.0,4.0,89,0.00,,,0.00,VWS V14.01,2013-12-20 03:44:00,
2013-12-19 21:49:00,13.7,11.1,30.11,NNE,29,3.0,6.0,89,0.00,,,0.00,VWS V14.01,2013-12-20 03:49:00,
2013-12-19 21:54:00,13.6,11.0,30.10,NNE,32,2.0,6.0,89,0.00,,,0.00,VWS V14.01,2013-12-20 03:54:00,
2013-12-19 21:59:00,13.5,10.9,30.10,NE,46,2.0,5.0,89,0.00,,,0.00,VWS V14.01,2013-12-20 03:59:00,
2013-12-19 22:04:00,13.4,10.8,30.10,ENE,63,1.0,6.0,89,0.00,,,0.00,VWS V14.01,2013-12-20 04:04:00,
2013-12-19 22:09:00,13.3,10.9,30.11,NE,36,2.0,6.0,90,0.00,,,0.00,VWS V14.01,2013-12-20 04:09:00,
2013-12-19 22:14:00,13.2,10.6,30.11,NNE,30,4.0,6.0,89,0.00,,,0.00,VWS V14.01,2013-12-20 04:14:00,
2013-12-19 22:19:00,13.1,10.7,30.11,NE,44,4.0,6.0,90,0.00,,,0.00,VWS V14.01,2013-12-20 04:19:00,
2013-12-19 22:24:00,13.1,10.7,30.10,NE,48,1.0,6.0,90,0.00,,,0.00,VWS V14.01,2013-12-20 04:24:00,
2013-12-19 22:29:00,13.0,10.6,30.10,NE,43,1.0,8.0,90,0.00,,,0.00,VWS V14.01,2013-12-20 04:29:00,
2013-12-19 22:34:00,13.0,10.6,30.10,ENE,58,1.0,8.0,90,0.00,,OVC020,0.00,VWS V14.01,2013-12-20 04:34:00,
2013-12-19 22:39:00,12.9,10.5,30.10,NNE,33,2.0,8.0,90,0.00,,OVC020,0.00,VWS V14.01,2013-12-20 04:39:00,
2013-12-19 22:44:00,12.8,10.4,30.10,ENE,72,1.0,8.0,90,0.00,,OVC020,0.00,VWS V14.01,2013-12-20 04:44:00,
2013-12-19 22:49:00,12.7,10.3,30.10,ENE,77,1.0,8.0,90,0.00,,OVC020,0.00,VWS V14.01,2013-12-20 04:49:00,
2013-12-19 22:54:00,12.7,10.3,30.10,NE,43,1.0,8.0,90,0.00,,OVC020,0.00,VWS V14.01,2013-12-20 04:54:00,
2013-12-19 22:59:00,12.6,10.2,30.10,NE,39,4.0,4.0,90,0.00,,OVC020,0.00,VWS V14.01,2013-12-20 04:59:00,
2013-12-19 23:01:00,12.6,10.2,30.10,NE,46,3.0,4.0,90,0.00,,OVC020,0.00,VWS V14.01,2013-12-20 05:01:00,
2013-12-19 23:06:00,12.6,10.2,30.10,NE,46,1.0,5.0,90,0.00,,OVC020,0.00,VWS V14.01,2013-12-20 05:06:00,
2013-12-19 23:11:00,12.6,10.2,30.10,NE,41,1.0,5.0,90,0.00,,OVC020,0.00,VWS V14.01,2013-12-20 05:11:00,
2013-12-19 23:16:00,12.6,10.2,30.10,NE,46,1.0,5.0,90,0.00,,OVC018,0.00,VWS V14.01,2013-12-20 05:16:00,
2013-12-19 23:21:00,12.6,10.2,30.10,NE,51,2.0,6.0,90,0.00,,OVC020,0.00,VWS V14.01,2013-12-20 05:21:00,
2013-12-19 23:26:00,12.6,10.2,30.09,ENE,58,3.0,6.0,90,0.00,,OVC020,0.00,VWS V14.01,2013-12-20 05:26:00,
2013-12-19 23:31:00,12.5,10.1,30.10,NE,44,2.0,4.0,90,0.00,,OVC020,0.00,VWS V14.01,2013-12-20 05:31:00,
2013-12-19 23:36:00,12.6,10.2,30.09,NE,46,1.0,4.0,90,0.00,,OVC014,0.00,VWS V14.01,2013-12-20 05:36:00,
2013-12-19 23:41:00,12.6,10.2,30.09,NE,49,3.0,5.0,90,0.00,,OVC014,0.00,VWS V14.01,2013-12-20 05:41:00,
2013-12-19 23:46:00,12.6,10.2,30.09,NNE,17,2.0,5.0,90,0.00,,OVC014,0.00,VWS V14.01,2013-12-20 05:46:00,
2013-12-19 23:47:00,12.6,10.2,30.09,NE,49,2.0,5.0,90,0.00,,OVC020,0.00,VWS V14.01,2013-12-20 05:47:00,
2013-12-19 23:52:00,12.6,10.2,30.09,NE,36,1.0,5.0,90,0.00,,OVC028,0.00,VWS V14.01,2013-12-20 05:52:00,
2013-12-19 23:57:00,12.7,10.3,30.09,NE,40,2.0,2.0,90,0.00,,OVC028,0.00,VWS V14.01,2013-12-20 05:57:00,